createdAt,value
2022-11-09T00:00:39.828Z,7.50
2022-11-09T00:03:23.957Z,7.55
2022-11-09T00:06:09.830Z,7.61
2022-11-09T00:09:07.342Z,7.54
2022-11-09T00:11:51.886Z,7.61
2022-11-09T00:14:45.798Z,7.59
2022-11-09T00:17:23.846Z,7.60
2022-11-09T00:20:14.874Z,7.66
2022-11-09T00:23:15.624Z,7.54
2022-11-09T00:26:02.515Z,7.52
2022-11-09T00:28:54.896Z,7.47
2022-11-09T00:31:34.089Z,7.40
2022-11-09T00:34:09.209Z,7.41
2022-11-09T00:36:51.031Z,7.45
2022-11-09T00:39:31.779Z,7.41
2022-11-09T00:42:13.084Z,7.44
2022-11-09T00:44:51.871Z,7.33
2022-11-09T00:47:43.781Z,7.29
2022-11-09T00:50:36.033Z,7.31
2022-11-09T00:53:17.911Z,7.45
2022-11-09T00:56:08.882Z,7.46
2022-11-09T00:59:01.406Z,7.50
2022-11-09T01:01:44.807Z,7.44
2022-11-09T01:04:30.559Z,7.41
2022-11-09T01:07:21.088Z,7.43
2022-11-09T01:10:07.973Z,7.38
2022-11-09T01:12:44.541Z,7.36
2022-11-09T01:15:33.896Z,7.35
2022-11-09T01:18:20.203Z,7.36
2022-11-09T01:21:09.929Z,7.35
2022-11-09T01:23:46.013Z,7.35
2022-11-09T01:26:32.657Z,7.37
2022-11-09T01:29:09.030Z,7.34
2022-11-09T01:31:46.667Z,7.21
2022-11-09T01:34:43.605Z,7.38
2022-11-09T01:37:36.181Z,7.36
2022-11-09T01:40:24.545Z,7.35
2022-11-09T01:43:21.198Z,7.34
2022-11-09T01:46:28.644Z,7.33
2022-11-09T01:49:28.404Z,7.23
2022-11-09T01:52:19.734Z,7.24
2022-11-09T01:55:11.853Z,7.29
2022-11-09T01:57:55.882Z,7.26
2022-11-09T02:00:28.911Z,7.29
2022-11-09T02:03:25.507Z,7.32
2022-11-09T02:06:10.453Z,7.31
2022-11-09T02:08:54.769Z,7.48
2022-11-09T02:11:42.775Z,7.45
2022-11-09T02:14:29.033Z,7.37
2022-11-09T02:17:20.465Z,7.29
2022-11-09T02:20:03.937Z,7.28
2022-11-09T02:22:52.801Z,7.27
2022-11-09T02:25:35.919Z,7.17
2022-11-09T02:28:28.487Z,7.24
2022-11-09T02:31:19.569Z,7.30
2022-11-09T02:34:15.303Z,7.33
2022-11-09T02:36:58.052Z,7.37
2022-11-09T02:39:37.761Z,7.45
2022-11-09T02:42:25.506Z,7.35
2022-11-09T02:45:09.497Z,7.36
2022-11-09T02:47:59.916Z,7.41
2022-11-09T02:50:47.260Z,7.33
2022-11-09T02:53:30.192Z,7.45
2022-11-09T02:56:13.659Z,7.45
2022-11-09T02:58:54.314Z,7.42
2022-11-09T03:01:35.242Z,7.30
2022-11-09T03:04:22.277Z,7.40
2022-11-09T03:07:04.168Z,7.33
2022-11-09T03:09:51.781Z,7.42
2022-11-09T03:12:35.913Z,7.44
2022-11-09T03:15:23.065Z,7.42
2022-11-09T03:18:11.000Z,7.37
2022-11-09T03:20:52.052Z,7.41
2022-11-09T03:23:39.213Z,7.40
2022-11-09T03:26:21.932Z,7.44
2022-11-09T03:29:09.356Z,7.45
2022-11-09T03:31:55.572Z,7.34
2022-11-09T03:34:42.317Z,7.44
2022-11-09T03:37:27.960Z,7.46
2022-11-09T03:40:09.419Z,7.43
2022-11-09T03:43:00.849Z,7.50
2022-11-09T03:45:44.679Z,7.46
2022-11-09T03:48:34.197Z,7.46
2022-11-09T03:51:26.218Z,7.45
2022-11-09T03:54:21.270Z,7.45
2022-11-09T03:57:18.644Z,7.39
2022-11-09T03:59:58.379Z,7.36
2022-11-09T04:02:52.497Z,7.45
2022-11-09T04:05:36.348Z,7.27
2022-11-09T04:08:23.519Z,7.31
2022-11-09T04:11:06.645Z,7.32
2022-11-09T04:13:57.453Z,7.35
2022-11-09T04:16:46.763Z,7.28
2022-11-09T04:19:38.969Z,7.33
2022-11-09T04:22:19.997Z,7.41
2022-11-09T04:25:03.216Z,7.36
2022-11-09T04:27:47.844Z,7.33
2022-11-09T04:30:31.354Z,7.43
2022-11-09T04:33:10.077Z,7.43
2022-11-09T04:35:56.823Z,7.35
2022-11-09T04:38:40.760Z,7.41
2022-11-09T04:41:20.852Z,7.32
2022-11-09T04:44:07.974Z,7.33
2022-11-09T04:46:53.895Z,7.38
2022-11-09T04:49:46.297Z,7.40
2022-11-09T04:52:29.843Z,7.43
2022-11-09T04:55:11.039Z,7.38
2022-11-09T04:57:54.915Z,7.41
2022-11-09T05:00:46.790Z,7.33
2022-11-09T05:03:37.975Z,7.36
2022-11-09T05:06:37.365Z,7.37
2022-11-09T05:09:20.355Z,7.36
2022-11-09T05:12:07.879Z,7.37
2022-11-09T05:14:53.499Z,7.34
2022-11-09T05:17:48.763Z,7.40
2022-11-09T05:20:35.258Z,7.29
2022-11-09T05:23:34.516Z,7.42
2022-11-09T05:26:15.285Z,7.44
2022-11-09T05:29:05.576Z,7.42
2022-11-09T05:31:52.425Z,7.37
2022-11-09T05:34:35.743Z,7.26
2022-11-09T05:37:25.338Z,7.26
2022-11-09T05:40:18.344Z,7.28
2022-11-09T05:43:01.892Z,7.32
2022-11-09T05:45:44.696Z,7.16
2022-11-09T05:48:31.807Z,7.14
2022-11-09T05:51:17.553Z,7.15
2022-11-09T05:54:00.515Z,7.24
2022-11-09T05:56:42.882Z,7.23
2022-11-09T05:59:29.062Z,7.16
2022-11-09T06:02:17.942Z,7.16
2022-11-09T06:05:22.271Z,7.21
2022-11-09T06:08:18.664Z,7.32
2022-11-09T06:11:24.050Z,7.17
2022-11-09T06:14:08.705Z,7.24
2022-11-09T06:16:50.897Z,7.14
2022-11-09T06:19:42.909Z,7.26
2022-11-09T06:22:21.024Z,7.12
2022-11-09T06:25:04.480Z,7.25
2022-11-09T06:27:54.053Z,7.27
2022-11-09T06:30:36.667Z,7.34
2022-11-09T06:33:25.903Z,7.32
2022-11-09T06:36:13.233Z,7.41
2022-11-09T06:39:01.012Z,7.42
2022-11-09T06:41:50.367Z,7.33
2022-11-09T06:44:42.388Z,7.37
2022-11-09T06:47:29.262Z,7.27
2022-11-09T06:50:22.591Z,7.27
2022-11-09T06:53:13.439Z,7.35
2022-11-09T06:56:05.536Z,7.25
2022-11-09T06:58:51.609Z,7.17
2022-11-09T07:02:01.380Z,7.21
2022-11-09T07:04:50.020Z,7.27
2022-11-09T07:07:33.713Z,7.08
2022-11-09T07:10:26.094Z,7.14
2022-11-09T07:13:16.338Z,7.28
2022-11-09T07:16:09.455Z,7.28
2022-11-09T07:18:55.440Z,7.37
2022-11-09T07:21:45.744Z,7.35
2022-11-09T07:24:35.895Z,7.26
2022-11-09T07:27:27.297Z,7.51
2022-11-09T07:30:16.640Z,7.41
2022-11-09T07:33:11.292Z,7.25
2022-11-09T07:35:52.647Z,7.44
2022-11-09T07:38:59.885Z,7.55
2022-11-09T07:41:54.130Z,7.52
2022-11-09T07:44:49.679Z,7.48
2022-11-09T07:47:38.781Z,7.73
2022-11-09T07:50:43.031Z,7.85
2022-11-09T07:53:33.463Z,7.85
2022-11-09T07:56:23.955Z,8.07
2022-11-09T07:59:12.518Z,8.03
2022-11-09T08:02:06.875Z,8.15
2022-11-09T08:05:03.284Z,8.00
2022-11-09T08:07:45.936Z,8.02
2022-11-09T08:10:33.165Z,8.08
2022-11-09T08:13:26.873Z,7.97
2022-11-09T08:16:19.886Z,8.14
2022-11-09T08:19:04.462Z,8.28
2022-11-09T08:21:58.302Z,8.31
2022-11-09T08:24:43.963Z,8.38
2022-11-09T08:27:34.647Z,8.42
2022-11-09T08:30:37.079Z,8.41
2022-11-09T08:33:23.187Z,8.39
2022-11-09T08:36:19.547Z,8.50
2022-11-09T08:39:05.627Z,8.48
2022-11-09T08:41:48.351Z,8.50
2022-11-09T08:44:43.768Z,8.35
2022-11-09T08:47:36.640Z,8.27
2022-11-09T08:50:25.890Z,8.27
2022-11-09T08:53:17.515Z,8.38
2022-11-09T08:56:01.375Z,8.43
2022-11-09T08:58:56.599Z,8.36
2022-11-09T09:04:53.565Z,8.45
2022-11-09T09:07:44.404Z,8.34
2022-11-09T09:10:35.877Z,8.33
2022-11-09T09:13:22.292Z,8.34
2022-11-09T09:16:25.448Z,8.46
2022-11-09T09:19:13.795Z,8.50
2022-11-09T09:22:02.783Z,8.35
2022-11-09T09:24:53.625Z,8.48
2022-11-09T09:27:41.639Z,8.56
2022-11-09T09:30:25.945Z,8.55
2022-11-09T09:33:13.877Z,8.54
2022-11-09T09:36:00.234Z,8.53
2022-11-09T09:38:47.450Z,8.56
2022-11-09T09:41:30.689Z,8.44
2022-11-09T09:44:45.763Z,8.43
2022-11-09T09:48:12.609Z,8.41
2022-11-09T09:51:25.147Z,8.53
2022-11-09T09:54:27.857Z,8.56
2022-11-09T09:57:25.855Z,8.56
2022-11-09T10:00:12.451Z,8.47
2022-11-09T10:02:58.684Z,8.42
2022-11-09T10:06:14.222Z,8.54
2022-11-09T10:09:22.196Z,8.64
2022-11-09T10:12:08.342Z,8.46
2022-11-09T10:15:15.863Z,8.55
2022-11-09T10:18:25.403Z,8.57
2022-11-09T10:21:22.530Z,8.58
2022-11-09T10:24:48.718Z,8.60
2022-11-09T10:27:36.965Z,8.57
2022-11-09T10:30:26.132Z,8.53
2022-11-09T10:33:39.072Z,8.67
2022-11-09T10:36:49.034Z,8.57
2022-11-09T10:39:50.706Z,8.46
2022-11-09T10:42:49.847Z,8.51
2022-11-09T10:46:04.738Z,8.60
2022-11-09T10:49:19.817Z,8.69
2022-11-09T10:52:47.680Z,8.64
2022-11-09T10:56:04.833Z,8.78
2022-11-09T10:59:05.000Z,8.61
2022-11-09T11:02:26.876Z,8.76
2022-11-09T11:05:31.832Z,8.85
2022-11-09T11:08:38.527Z,8.85
2022-11-09T11:11:45.283Z,8.77
2022-11-09T11:14:46.107Z,8.76
2022-11-09T11:18:05.823Z,8.79
2022-11-09T11:21:19.547Z,8.75
2022-11-09T11:24:31.157Z,8.85
2022-11-09T11:28:00.784Z,8.69
2022-11-09T11:31:05.872Z,8.77
2022-11-09T11:34:26.655Z,8.80
2022-11-09T11:38:08.283Z,8.85
2022-11-09T11:41:40.641Z,8.90
2022-11-09T11:45:40.038Z,8.91
2022-11-09T11:48:54.806Z,8.81
2022-11-09T11:52:00.579Z,8.83
2022-11-09T11:55:18.632Z,8.85
2022-11-09T11:58:30.941Z,8.94
2022-11-09T12:01:54.826Z,8.97
2022-11-09T12:05:09.900Z,9.00
2022-11-09T12:08:31.674Z,8.97
2022-11-09T12:12:07.103Z,8.95
2022-11-09T12:15:32.801Z,8.97
2022-11-09T12:18:30.966Z,8.96
2022-11-09T12:21:34.439Z,9.10
2022-11-09T12:24:41.910Z,9.06
2022-11-09T12:28:13.974Z,9.10
2022-11-09T12:32:00.119Z,9.12
2022-11-09T12:35:26.210Z,9.10
2022-11-09T12:38:32.575Z,9.12
2022-11-09T12:41:53.802Z,9.08
2022-11-09T12:45:09.815Z,9.01
2022-11-09T12:48:14.536Z,9.07
2022-11-09T12:51:15.017Z,9.03
2022-11-09T12:54:13.552Z,9.08
2022-11-09T12:57:20.931Z,9.14
2022-11-09T13:00:44.457Z,9.01
2022-11-09T13:03:56.671Z,9.13
2022-11-09T13:07:13.846Z,9.15
2022-11-09T13:10:27.869Z,9.09
2022-11-09T13:13:51.903Z,9.11
2022-11-09T13:16:56.277Z,9.19
2022-11-09T13:20:53.901Z,9.24
2022-11-09T13:24:24.562Z,9.28
2022-11-09T13:27:45.780Z,9.22
2022-11-09T13:30:57.337Z,9.14
2022-11-09T13:34:13.784Z,9.25
2022-11-09T13:37:36.984Z,9.21
2022-11-09T13:41:09.205Z,9.14
2022-11-09T13:44:48.242Z,9.23
2022-11-09T13:48:00.920Z,9.19
2022-11-09T13:51:12.845Z,9.17
2022-11-09T13:54:32.555Z,9.21
2022-11-09T13:57:48.840Z,9.22
2022-11-09T14:00:59.191Z,9.19
2022-11-09T14:04:01.310Z,9.10
2022-11-09T14:07:18.779Z,9.07
2022-11-09T14:10:53.183Z,9.03
2022-11-09T14:14:36.423Z,9.07
2022-11-09T14:18:07.910Z,9.04
2022-11-09T14:21:40.282Z,9.22
2022-11-09T14:24:54.474Z,9.22
2022-11-09T14:28:22.787Z,9.21
2022-11-09T14:31:45.269Z,9.24
2022-11-09T14:39:18.579Z,9.38
2022-11-09T14:42:35.518Z,9.35
2022-11-09T14:49:42.669Z,9.33
2022-11-09T14:53:00.593Z,9.41
2022-11-09T14:56:15.407Z,9.31
2022-11-09T15:03:31.510Z,9.32
2022-11-09T15:06:45.226Z,9.27
2022-11-09T15:09:53.682Z,9.21
2022-11-09T15:12:51.842Z,9.19
2022-11-09T15:16:19.967Z,9.25
2022-11-09T15:19:42.298Z,9.13
2022-11-09T15:23:22.495Z,9.14
2022-11-09T15:30:01.227Z,9.20
2022-11-09T15:33:31.896Z,9.17
2022-11-09T15:36:46.740Z,9.24
2022-11-09T15:40:49.971Z,9.14
2022-11-09T15:43:55.828Z,9.20
2022-11-09T15:47:19.159Z,9.18
2022-11-09T15:50:53.840Z,9.19
2022-11-09T15:54:19.136Z,9.18
2022-11-09T15:58:00.935Z,9.30
2022-11-09T16:01:26.700Z,9.28
2022-11-09T16:04:51.473Z,9.29
2022-11-09T16:08:32.827Z,9.10
2022-11-09T16:11:45.681Z,9.06
2022-11-09T16:15:00.082Z,9.10
2022-11-09T16:25:33.995Z,9.12
2022-11-09T16:29:39.352Z,9.12
2022-11-09T16:33:01.370Z,9.10
2022-11-09T16:36:19.180Z,9.15
2022-11-09T16:39:40.119Z,9.12
2022-11-09T16:42:45.771Z,9.20
2022-11-09T16:45:56.426Z,9.20
2022-11-09T16:49:02.629Z,9.08
2022-11-09T16:52:04.865Z,9.19
2022-11-09T16:55:03.738Z,9.07
2022-11-09T16:58:07.812Z,9.12
2022-11-09T17:01:11.912Z,9.06
2022-11-09T17:04:24.266Z,9.09
2022-11-09T17:07:22.435Z,9.02
2022-11-09T17:10:23.675Z,9.09
2022-11-09T17:13:22.949Z,9.11
2022-11-09T17:16:23.165Z,9.07
2022-11-09T17:19:33.765Z,9.03
2022-11-09T17:22:45.694Z,9.07
2022-11-09T17:25:47.709Z,9.06
2022-11-09T17:28:46.854Z,9.01
2022-11-09T17:31:48.816Z,9.07
2022-11-09T17:34:53.248Z,9.10
2022-11-09T17:37:49.310Z,9.01
2022-11-09T17:40:49.800Z,9.00
2022-11-09T17:43:51.097Z,9.07
2022-11-09T17:46:50.889Z,9.09
2022-11-09T17:49:57.841Z,9.07
2022-11-09T17:53:01.270Z,9.11
2022-11-09T17:56:03.762Z,9.11
2022-11-09T17:59:03.206Z,9.10
2022-11-09T18:02:02.814Z,9.13
2022-11-09T18:05:07.074Z,9.12
2022-11-09T18:08:08.580Z,9.16
2022-11-09T18:11:15.556Z,9.18
2022-11-09T18:14:17.202Z,9.19
2022-11-09T18:17:16.160Z,9.19
2022-11-09T18:20:15.901Z,9.26
2022-11-09T18:23:18.267Z,9.19
2022-11-09T18:26:20.772Z,9.13
2022-11-09T18:29:26.331Z,9.07
2022-11-09T18:32:31.579Z,9.09
2022-11-09T18:35:37.431Z,9.10
2022-11-09T18:38:39.505Z,9.13
2022-11-09T18:41:36.856Z,9.05
2022-11-09T18:44:40.710Z,9.17
2022-11-09T18:47:40.150Z,9.19
2022-11-09T18:50:46.687Z,9.08
2022-11-09T18:53:47.873Z,9.09
2022-11-09T18:56:47.993Z,9.15
2022-11-09T18:59:52.890Z,9.17
2022-11-09T19:03:01.847Z,9.17
2022-11-09T19:06:07.414Z,9.24
2022-11-09T19:09:29.825Z,9.26
2022-11-09T19:12:30.815Z,9.22
2022-11-09T19:15:38.538Z,9.27
2022-11-09T19:18:41.623Z,9.30
2022-11-09T19:21:54.783Z,9.27
2022-11-09T19:25:14.124Z,9.26
2022-11-09T19:28:23.791Z,9.32
2022-11-09T19:31:21.655Z,9.32
2022-11-09T19:34:24.066Z,9.07
2022-11-09T19:37:20.998Z,9.21
2022-11-09T19:40:23.651Z,9.26
2022-11-09T19:43:26.194Z,9.28
2022-11-09T19:46:33.820Z,9.25
2022-11-09T19:49:38.532Z,9.27
2022-11-09T19:52:43.392Z,9.21
2022-11-09T19:55:45.764Z,9.23
2022-11-09T19:58:42.244Z,9.21
2022-11-09T20:01:47.267Z,9.25
2022-11-09T20:04:52.423Z,9.28
2022-11-09T20:07:48.828Z,9.20
2022-11-09T20:10:47.960Z,9.18
2022-11-09T20:13:53.833Z,9.21
2022-11-09T20:16:59.293Z,9.30
2022-11-09T20:20:11.341Z,9.16
2022-11-09T20:23:13.252Z,9.16
2022-11-09T20:26:21.826Z,9.21
2022-11-09T20:29:21.439Z,9.25
2022-11-09T20:32:29.374Z,9.27
2022-11-09T20:35:26.025Z,9.16
2022-11-09T20:38:28.990Z,9.17
2022-11-09T20:41:31.821Z,9.22
2022-11-09T20:44:37.221Z,9.26
2022-11-09T20:48:04.730Z,9.31
2022-11-09T20:51:04.402Z,9.30
2022-11-09T20:54:05.623Z,9.38
2022-11-09T20:57:10.085Z,9.33
2022-11-09T21:00:18.153Z,9.26
2022-11-09T21:03:26.955Z,9.25
2022-11-09T21:06:24.110Z,9.27
2022-11-09T21:09:24.799Z,9.31
2022-11-09T21:12:27.328Z,9.22
2022-11-09T21:15:29.802Z,9.20
2022-11-09T21:18:28.795Z,9.29
2022-11-09T21:21:26.364Z,9.32
2022-11-09T21:24:42.419Z,9.31
2022-11-09T21:27:59.837Z,9.32
2022-11-09T21:31:08.061Z,9.32
2022-11-09T21:34:15.189Z,9.44
2022-11-09T21:37:21.266Z,9.44
2022-11-09T21:40:23.448Z,9.42
2022-11-09T21:43:28.007Z,9.44
2022-11-09T21:46:27.521Z,9.30
2022-11-09T21:49:44.721Z,9.43
2022-11-09T21:52:53.127Z,9.41
2022-11-09T21:55:55.797Z,9.49
2022-11-09T21:59:03.605Z,9.53
2022-11-09T22:02:06.340Z,9.55
2022-11-09T22:05:22.739Z,9.54
2022-11-09T22:08:30.025Z,9.49
2022-11-09T22:11:46.792Z,9.58
2022-11-09T22:14:59.397Z,9.55
2022-11-09T22:18:03.833Z,9.56
2022-11-09T22:21:05.338Z,9.62
2022-11-09T22:24:10.129Z,9.64
2022-11-09T22:27:11.993Z,9.58
2022-11-09T22:30:15.986Z,9.63
2022-11-09T22:33:14.516Z,9.63
2022-11-09T22:36:16.445Z,9.69
2022-11-09T22:39:21.226Z,9.64
2022-11-09T22:42:25.325Z,9.64
2022-11-09T22:45:24.368Z,9.67
2022-11-09T22:48:24.003Z,9.62
2022-11-09T22:51:27.930Z,9.62
2022-11-09T22:54:27.951Z,9.65
2022-11-09T22:57:36.691Z,9.62
2022-11-09T23:00:39.255Z,9.63
2022-11-09T23:03:41.140Z,9.54
2022-11-09T23:06:37.527Z,9.66
2022-11-09T23:09:39.246Z,9.72
2022-11-09T23:12:40.789Z,9.72
2022-11-09T23:15:39.843Z,9.80
2022-11-09T23:18:57.183Z,9.77
2022-11-09T23:22:04.880Z,9.67
2022-11-09T23:25:21.468Z,9.59
2022-11-09T23:28:26.117Z,9.57
2022-11-09T23:31:31.610Z,9.61
2022-11-09T23:34:35.498Z,9.55
2022-11-09T23:37:34.618Z,9.57
2022-11-09T23:40:37.503Z,9.50
2022-11-09T23:43:38.809Z,9.47
2022-11-09T23:46:37.987Z,9.38
2022-11-09T23:49:39.265Z,9.53
2022-11-09T23:52:38.801Z,9.61
2022-11-09T23:55:45.452Z,9.67
2022-11-09T23:58:46.819Z,9.70
